Time;durP1;ratioP1;P1;durP2;ratioP2;P2;SDS_P1;SDS_P2;PMS_P1;PMS_P2;Temp;Humidity;BMP_temperature;BMP_pressure;BME280_temperature;BME280_humidity;BME280_pressure;Samples;Min_cycle;Max_cycle;Signal;HPM_P1;HPM_P2
2021/03/17 00:01:36;;;;;;;;;;;;;;;3.35;100.00;101928.25;5024934;28;19944;-84
2021/03/17 00:04:02;;;;;;;;;;;;;;;3.41;100.00;101928.84;5019858;28;20012;-81
2021/03/17 00:06:27;;;;;;;;;;;;;;;3.42;100.00;101933.19;5027458;28;19925;-82
2021/03/17 00:08:52;;;;;;;;;;;;;;;3.42;100.00;101936.69;5016127;28;19917;-81
2021/03/17 00:11:18;;;;;;;;;;;;;;;3.43;100.00;101938.44;5003462;28;20209;-84
2021/03/17 00:13:43;;;;;;;;;;;;;;;3.38;100.00;101927.22;5017313;28;20017;-84
2021/03/17 00:16:08;;;;;;;;;;;;;;;3.42;100.00;101938.50;5021548;28;19925;-82
2021/03/17 00:18:33;;;;;;;;;;;;;;;3.42;100.00;101933.19;5024727;28;19964;-82
2021/03/17 00:20:59;;;;;;;;;;;;;;;3.45;100.00;101936.50;5014625;28;20380;-85
2021/03/17 00:23:24;;;;;;;;;;;;;;;3.44;100.00;101934.81;5027774;28;19933;-81
2021/03/17 00:25:49;;;;;;;;;;;;;;;3.33;100.00;101938.09;5003750;28;19936;-84
2021/03/17 00:28:15;;;;;;;;;;;;;;;3.33;100.00;101932.78;5026771;28;20015;-85
2021/03/17 00:30:40;;;;;;;;;;;;;;;3.36;100.00;101934.41;5037898;28;19932;-85
2021/03/17 00:33:07;;;;;;;;;;;;;;;3.35;100.00;101933.56;5011726;28;19933;-83
2021/03/17 00:35:33;;;;;;;;;;;;;;;3.32;100.00;101938.19;5036801;28;19964;-84
2021/03/17 00:37:58;;;;;;;;;;;;;;;3.29;100.00;101941.03;5023482;28;19952;-84
2021/03/17 00:40:23;;;;;;;;;;;;;;;3.28;100.00;101947.25;5024168;28;19925;-82
2021/03/17 00:45:52;;;;;;;;;;;;;;;3.29;100.00;101955.16;5027011;28;19927;-83
2021/03/17 00:48:17;;;;;;;;;;;;;;;3.28;100.00;101953.44;5026773;28;19921;-86
2021/03/17 00:50:42;;;;;;;;;;;;;;;3.26;100.00;101955.31;5025530;28;19925;-84
2021/03/17 00:53:08;;;;;;;;;;;;;;;3.21;100.00;101957.38;5027088;28;20028;-85
2021/03/17 00:55:35;;;;;;;;;;;;;;;3.20;100.00;101949.53;5025878;28;19968;-84
2021/03/17 00:58:00;;;;;;;;;;;;;;;3.26;100.00;101954.47;5020903;28;19929;-82
2021/03/17 01:00:25;;;;;;;;;;;;;;;3.22;100.00;101959.09;5047093;28;19925;-88
2021/03/17 01:02:51;;;;;;;;;;;;;;;3.22;100.00;101953.78;5046204;28;19917;-82
2021/03/17 01:05:53;;;;;;;;;;;;;;;3.22;100.00;101948.47;5031504;28;19917;-86
2021/03/17 01:08:19;;;;;;;;;;;;;;;3.22;100.00;101951.13;5005918;28;19921;-83
2021/03/17 01:10:46;;;;;;;;;;;;;;;3.22;100.00;101948.47;5024257;28;20456;-86
2021/03/17 01:13:11;;;;;;;;;;;;;;;3.25;100.00;101945.66;5017336;28;20083;-82
2021/03/17 01:15:37;;;;;;;;;;;;;;;3.23;100.00;101955.50;5007643;28;20063;-85
2021/03/17 01:18:05;;;;;;;;;;;;;;;3.24;100.00;101954.56;5023427;28;19921;-82
2021/03/17 01:20:31;;;;;;;;;;;;;;;3.26;100.00;101955.31;5022285;28;19921;-83
2021/03/17 01:22:57;;;;;;;;;;;;;;;3.28;100.00;101950.78;5008316;28;20272;-84
2021/03/17 01:25:28;;;;;;;;;;;;;;;3.28;100.00;101947.25;5004004;28;19921;-84
2021/03/17 01:27:53;;;;;;;;;;;;;;;3.27;100.00;101949.06;5003777;28;19928;-82
2021/03/17 01:30:21;;;;;;;;;;;;;;;3.27;100.00;101946.41;5004631;28;19922;-81
2021/03/17 01:32:48;;;;;;;;;;;;;;;3.26;100.00;101947.38;5006702;28;19929;-84
2021/03/17 01:35:13;;;;;;;;;;;;;;;3.28;100.00;101948.16;5023857;28;20414;-81
2021/03/17 01:37:39;;;;;;;;;;;;;;;3.26;100.00;101955.31;5023640;28;19921;-83
2021/03/17 01:40:05;;;;;;;;;;;;;;;3.25;100.00;101958.94;5022545;28;19925;-80
2021/03/17 01:42:30;;;;;;;;;;;;;;;3.26;100.00;101947.38;5005859;28;20331;-86
2021/03/17 01:44:56;;;;;;;;;;;;;;;3.28;100.00;101958.75;5018154;28;19925;-82
2021/03/17 01:47:22;;;;;;;;;;;;;;;3.29;100.00;101956.94;5025028;28;19975;-84
2021/03/17 01:49:47;;;;;;;;;;;;;;;3.27;100.00;101959.69;5023805;28;19944;-81
2021/03/17 01:52:13;;;;;;;;;;;;;;;3.35;100.00;101959.25;5040812;28;19937;-83
2021/03/17 01:54:38;;;;;;;;;;;;;;;3.27;100.00;101954.38;5017820;28;20373;-80
2021/03/17 01:57:03;;;;;;;;;;;;;;;3.22;100.00;101960.88;5026939;28;20957;-84
2021/03/17 01:59:30;;;;;;;;;;;;;;;3.26;100.00;101957.13;5025953;28;19928;-83
2021/03/17 02:01:56;;;;;;;;;;;;;;;3.27;100.00;101954.38;5024485;28;19932;-82
2021/03/17 02:04:21;;;;;;;;;;;;;;;3.26;100.00;101952.69;5025931;28;20008;-84
2021/03/17 02:06:47;;;;;;;;;;;;;;;3.28;100.00;101968.50;5022444;28;19979;-81
2021/03/17 02:09:12;;;;;;;;;;;;;;;3.26;100.00;101960.63;5023191;28;19928;-84
2021/03/17 02:11:42;;;;;;;;;;;;;;;3.27;100.00;101961.47;5025723;28;20079;-81
2021/03/17 02:14:39;;;;;;;;;;;;;;;3.25;100.00;101958.06;5025586;28;20012;-83
2021/03/17 02:17:08;;;;;;;;;;;;;;;3.26;100.00;101960.63;4956274;28;20548;-81
2021/03/17 02:19:54;;;;;;;;;;;;;;;3.27;100.00;101956.19;5024995;28;19936;-84
2021/03/17 02:22:19;;;;;;;;;;;;;;;3.22;100.00;101964.38;5006481;28;19968;-82
2021/03/17 02:25:01;;;;;;;;;;;;;;;3.23;100.00;101958.16;5028235;28;19957;-83
2021/03/17 02:27:45;;;;;;;;;;;;;;;3.24;100.00;101962.50;5028761;28;19917;-82
2021/03/17 02:30:29;;;;;;;;;;;;;;;3.27;100.00;101951.72;5026360;28;20334;-80
2021/03/17 02:33:20;;;;;;;;;;;;;;;3.25;100.00;101952.75;5024038;28;19932;-80
2021/03/17 02:35:48;;;;;;;;;;;;;;;3.27;100.00;101959.69;5028841;28;20023;-84
2021/03/17 02:38:14;;;;;;;;;;;;;;;3.28;100.00;101953.44;5028379;28;19960;-80
2021/03/17 02:40:40;;;;;;;;;;;;;;;3.22;100.00;101947.63;5027247;28;19921;-83
2021/03/17 02:43:16;;;;;;;;;;;;;;;3.25;100.00;101966.00;5023899;28;19925;-84
2021/03/17 02:45:42;;;;;;;;;;;;;;;3.25;100.00;101953.63;5004943;28;20304;-83
2021/03/17 02:48:13;;;;;;;;;;;;;;;3.22;100.00;101952.94;5008857;28;20339;-81
2021/03/17 02:50:41;;;;;;;;;;;;;;;3.25;100.00;101950.97;5025736;28;19925;-84
2021/03/17 02:53:07;;;;;;;;;;;;;;;3.26;100.00;101950.03;5018392;28;19928;-81
2021/03/17 02:55:33;;;;;;;;;;;;;;;3.25;100.00;101942.13;5024261;28;19921;-81
2021/03/17 02:57:59;;;;;;;;;;;;;;;3.27;100.00;101946.41;5012644;28;19921;-84
2021/03/17 03:00:25;;;;;;;;;;;;;;;3.28;100.00;101947.25;5003365;28;19921;-81
2021/03/17 03:02:52;;;;;;;;;;;;;;;3.29;100.00;101938.38;5012639;28;20303;-83
2021/03/17 03:05:19;;;;;;;;;;;;;;;3.28;100.00;101934.88;5025049;28;19921;-82
2021/03/17 03:07:47;;;;;;;;;;;;;;;3.30;100.00;101929.47;5023106;28;20310;-81
2021/03/17 03:10:13;;;;;;;;;;;;;;;3.30;100.00;101938.28;5022916;28;20321;-83
2021/03/17 03:12:39;;;;;;;;;;;;;;;3.31;100.00;101937.34;5026399;28;19952;-84
2021/03/17 03:15:06;;;;;;;;;;;;;;;3.32;100.00;101936.41;5021312;28;20394;-81
2021/03/17 03:17:33;;;;;;;;;;;;;;;3.32;100.00;101939.03;5024421;28;19921;-81
2021/03/17 03:19:59;;;;;;;;;;;;;;;3.29;100.00;101933.94;5021564;28;19965;-82
2021/03/17 03:22:25;;;;;;;;;;;;;;;3.28;100.00;101932.22;5023277;28;20280;-83
2021/03/17 03:24:53;;;;;;;;;;;;;;;3.30;100.00;101940.06;5022732;28;19929;-84
2021/03/17 03:27:19;;;;;;;;;;;;;;;3.33;100.00;101939.91;5021035;28;19921;-84
2021/03/17 03:29:45;;;;;;;;;;;;;;;3.31;100.00;101942.66;5019448;28;20446;-82
2021/03/17 03:32:10;;;;;;;;;;;;;;;3.34;100.00;101931.88;5022848;28;19925;-83
2021/03/17 03:34:36;;;;;;;;;;;;;;;3.32;100.00;101938.19;5019810;28;19933;-86
2021/03/17 03:37:01;;;;;;;;;;;;;;;3.29;100.00;101928.63;5019950;28;19920;-85
2021/03/17 03:39:27;;;;;;;;;;;;;;;3.30;100.00;101930.31;5024491;28;19939;-83
2021/03/17 03:41:53;;;;;;;;;;;;;;;3.30;100.00;101927.66;5020153;28;19925;-83
2021/03/17 03:44:19;;;;;;;;;;;;;;;3.31;100.00;101926.75;5024386;28;19921;-83
2021/03/17 03:46:44;;;;;;;;;;;;;;;3.32;100.00;101927.59;5024846;28;19928;-81
2021/03/17 03:49:09;;;;;;;;;;;;;;;3.36;100.00;101923.78;5025033;28;19925;-83
2021/03/17 03:51:37;;;;;;;;;;;;;;;3.32;100.00;101924.94;5027411;28;19972;-81
2021/03/17 03:54:05;;;;;;;;;;;;;;;3.31;100.00;101928.50;5028380;28;20007;-80
2021/03/17 03:56:34;;;;;;;;;;;;;;;3.33;100.00;101930.13;5029246;28;20010;-83
2021/03/17 03:59:02;;;;;;;;;;;;;;;3.34;100.00;101937.16;5024383;28;20175;-83
2021/03/17 04:01:46;;;;;;;;;;;;;;;3.34;100.00;101937.16;5022087;28;19932;-82
2021/03/17 04:04:16;;;;;;;;;;;;;;;3.34;100.00;101942.47;5030848;28;19944;-82
2021/03/17 04:06:44;;;;;;;;;;;;;;;3.30;100.00;101940.94;5027219;28;19990;-83
2021/03/17 04:09:10;;;;;;;;;;;;;;;3.34;100.00;101939.81;5014663;28;19921;-83
2021/03/17 04:11:37;;;;;;;;;;;;;;;3.34;100.00;101938.97;5000662;28;19925;-82
2021/03/17 04:14:05;;;;;;;;;;;;;;;3.32;100.00;101944.34;5016443;28;19921;-85
2021/03/17 04:16:32;;;;;;;;;;;;;;;3.34;100.00;101941.63;5022814;28;19921;-83
2021/03/17 04:19:01;;;;;;;;;;;;;;;3.32;100.00;101951.47;5014132;28;20308;-83
2021/03/17 04:21:28;;;;;;;;;;;;;;;3.35;100.00;101951.28;5009568;28;19953;-82
2021/03/17 04:23:54;;;;;;;;;;;;;;;3.35;100.00;101951.28;5007630;28;19922;-81
2021/03/17 04:26:20;;;;;;;;;;;;;;;3.36;100.00;101952.97;5004315;28;20052;-81
2021/03/17 04:28:47;;;;;;;;;;;;;;;3.31;100.00;101950.63;5014114;28;19925;-85
2021/03/17 04:31:12;;;;;;;;;;;;;;;3.33;100.00;101946.06;5016263;28;19922;-84
2021/03/17 04:33:38;;;;;;;;;;;;;;;3.36;100.00;101959.13;5008266;28;19981;-84
2021/03/17 04:36:06;;;;;;;;;;;;;;;3.39;100.00;101964.28;4995980;28;19921;-82
2021/03/17 04:38:33;;;;;;;;;;;;;;;3.36;100.00;101968.91;5024616;28;19925;-86
2021/03/17 04:40:58;;;;;;;;;;;;;;;3.32;100.00;101962.09;5028027;28;19917;-85
2021/03/17 04:43:24;;;;;;;;;;;;;;;3.34;100.00;101963.69;5019327;28;19976;-81
2021/03/17 04:45:50;;;;;;;;;;;;;;;3.35;100.00;101959.25;5024353;28;19917;-84
2021/03/17 04:48:16;;;;;;;;;;;;;;;3.33;100.00;101963.78;5013451;28;19929;-82
2021/03/17 04:50:44;;;;;;;;;;;;;;;3.33;100.00;101969.94;5010158;28;19936;-82
2021/03/17 04:53:10;;;;;;;;;;;;;;;3.32;100.00;101968.22;4988077;28;19932;-82
2021/03/17 04:55:36;;;;;;;;;;;;;;;3.30;100.00;101975.41;5010559;28;19921;-82
2021/03/17 04:58:01;;;;;;;;;;;;;;;3.35;100.00;101975.16;5023318;28;19928;-84
2021/03/17 05:00:27;;;;;;;;;;;;;;;3.31;100.00;101984.22;5026447;28;19929;-83
2021/03/17 05:03:01;;;;;;;;;;;;;;;3.15;100.00;101989.56;5023065;28;19929;-84
2021/03/17 05:05:28;;;;;;;;;;;;;;;3.06;100.00;101979.50;5026533;28;19921;-82
2021/03/17 05:07:53;;;;;;;;;;;;;;;2.97;100.00;101990.63;5023481;28;19928;-82
2021/03/17 05:10:20;;;;;;;;;;;;;;;2.93;100.00;101998.75;5025790;28;19921;-84
2021/03/17 05:12:45;;;;;;;;;;;;;;;2.85;100.00;101993.00;5020924;28;20781;-81
2021/03/17 05:15:11;;;;;;;;;;;;;;;2.88;100.00;101992.84;5017273;28;20016;-81
2021/03/17 05:17:37;;;;;;;;;;;;;;;2.87;100.00;101999.06;5020971;28;20418;-84
2021/03/17 05:20:03;;;;;;;;;;;;;;;2.92;100.00;102001.47;5023644;28;19925;-84
2021/03/17 05:22:30;;;;;;;;;;;;;;;2.87;100.00;101995.56;5026344;28;19921;-84
2021/03/17 05:24:56;;;;;;;;;;;;;;;2.86;100.00;101994.72;5020903;28;20015;-82
2021/03/17 05:27:25;;;;;;;;;;;;;;;2.87;100.00;101991.09;5030964;28;20419;-83
2021/03/17 05:29:50;;;;;;;;;;;;;;;2.85;100.00;101995.66;5020051;28;19932;-83
2021/03/17 05:32:16;;;;;;;;;;;;;;;2.81;100.00;102007.34;5019262;28;20122;-80
2021/03/17 05:34:53;;;;;;;;;;;;;;;2.76;100.00;101998.78;5003396;28;20375;-84
2021/03/17 05:37:18;;;;;;;;;;;;;;;2.70;100.00;102004.44;5023019;28;20004;-84
2021/03/17 05:39:43;;;;;;;;;;;;;;;2.73;100.00;102014.88;5017898;28;20405;-81
2021/03/17 05:42:10;;;;;;;;;;;;;;;2.78;100.00;102010.19;5006283;28;19957;-83
2021/03/17 05:44:37;;;;;;;;;;;;;;;2.74;100.00;102015.75;5021303;28;19944;-83
2021/03/17 05:47:02;;;;;;;;;;;;;;;2.75;100.00;102018.31;5023357;28;19921;-83
2021/03/17 05:49:28;;;;;;;;;;;;;;;2.75;100.00;102015.66;5024622;28;19936;-80
2021/03/17 05:51:54;;;;;;;;;;;;;;;2.78;100.00;102018.13;5028193;28;19921;-81
2021/03/17 05:54:19;;;;;;;;;;;;;;;2.72;100.00;102013.16;5023300;28;19944;-83
2021/03/17 05:56:44;;;;;;;;;;;;;;;2.69;100.00;102016.00;5020363;28;19933;-85
2021/03/17 05:59:09;;;;;;;;;;;;;;;2.60;100.00;102022.66;5020235;28;19961;-83
2021/03/17 06:01:35;;;;;;;;;;;;;;;2.53;100.00;102023.03;5013720;28;19925;-87
2021/03/17 06:04:02;;;;;;;;;;;;;;;2.51;100.00;102024.94;5016841;28;19917;-83
2021/03/17 06:06:28;;;;;;;;;;;;;;;2.49;100.00;102028.50;5026326;28;20449;-84
2021/03/17 06:08:59;;;;;;;;;;;;;;;2.51;100.00;102024.94;5026987;28;20388;-83
2021/03/17 06:11:25;;;;;;;;;;;;;;;2.41;100.00;102025.41;5024242;28;19940;-84
2021/03/17 06:13:51;;;;;;;;;;;;;;;2.36;100.00;102021.28;5028198;28;19917;-84
2021/03/17 06:16:20;;;;;;;;;;;;;;;2.37;100.00;102023.03;5002250;28;20392;-83
2021/03/17 06:18:49;;;;;;;;;;;;;;;2.34;100.00;102024.03;5018279;28;19921;-81
2021/03/17 06:21:20;;;;;;;;;;;;;;;2.33;100.00;102017.03;5020931;28;19929;-85
2021/03/17 06:23:50;;;;;;;;;;;;;;;2.33;100.00;102016.16;5024167;28;20411;-83
2021/03/17 06:26:16;;;;;;;;;;;;;;;2.25;100.00;102017.44;5018700;28;19929;-80
2021/03/17 06:28:41;;;;;;;;;;;;;;;2.30;100.00;102014.53;5006520;28;19921;-81
2021/03/17 06:31:09;;;;;;;;;;;;;;;2.26;100.00;102005.88;5020904;28;20388;-82
2021/03/17 06:33:34;;;;;;;;;;;;;;;2.32;100.00;102017.94;5002929;28;19926;-82
2021/03/17 06:36:19;;;;;;;;;;;;;;;2.31;100.00;102018.91;5007640;28;19936;-82
2021/03/17 06:38:45;;;;;;;;;;;;;;;2.32;100.00;102025.91;5005282;28;19925;-85
2021/03/17 06:41:11;;;;;;;;;;;;;;;2.32;100.00;102023.25;5004790;28;19921;-82
2021/03/17 06:43:37;;;;;;;;;;;;;;;2.26;100.00;102020.94;5002967;28;19921;-85
2021/03/17 06:46:04;;;;;;;;;;;;;;;2.27;100.00;102019.97;5015291;28;19925;-85
2021/03/17 06:48:29;;;;;;;;;;;;;;;2.31;100.00;102018.91;5023604;28;19943;-83
2021/03/17 06:51:02;;;;;;;;;;;;;;;2.39;100.00;102021.16;5010482;28;20387;-83
2021/03/17 06:53:39;;;;;;;;;;;;;;;2.43;100.00;102023.53;5026642;28;19925;-85
2021/03/17 06:56:11;;;;;;;;;;;;;;;2.46;100.00;102022.53;5016112;28;19929;-82
2021/03/17 06:58:40;;;;;;;;;;;;;;;2.48;100.00;102026.81;5019276;28;20395;-81
2021/03/17 07:01:21;;;;;;;;;;;;;;;2.55;100.00;102022.03;5017302;28;19928;-84
2021/03/17 07:03:51;;;;;;;;;;;;;;;2.58;100.00;102026.31;5019493;28;19917;-83
2021/03/17 07:06:16;;;;;;;;;;;;;;;2.68;100.00;102014.28;5011550;28;19925;-83
2021/03/17 07:08:42;;;;;;;;;;;;;;;2.71;100.00;102016.78;4998233;28;19929;-84
2021/03/17 07:11:07;;;;;;;;;;;;;;;2.81;100.00;102014.47;4994117;28;20395;-83
2021/03/17 07:13:32;;;;;;;;;;;;;;;2.87;100.00;102014.13;5012736;28;20407;-84
2021/03/17 07:15:58;;;;;;;;;;;;;;;2.89;100.00;102010.44;5017481;28;20004;-81
2021/03/17 07:18:30;;;;;;;;;;;;;;;2.95;100.00;102025.16;5000817;28;20627;-81
2021/03/17 07:20:58;;;;;;;;;;;;;;;3.00;100.00;102020.47;4993718;28;19930;-85
2021/03/17 07:23:28;;;;;;;;;;;;;;;3.02;100.00;102020.38;5006574;28;19983;-86
2021/03/17 07:26:12;;;;;;;;;;;;;;;3.05;100.00;102015.78;5010217;28;19929;-84
2021/03/17 07:28:46;;;;;;;;;;;;;;;3.06;100.00;102022.78;5015647;28;19933;-83
2021/03/17 07:31:14;;;;;;;;;;;;;;;3.10;100.00;102034.06;4993114;28;19929;-82
2021/03/17 07:33:39;;;;;;;;;;;;;;;3.12;100.00;102037.50;5005050;28;19961;-82
2021/03/17 07:36:04;;;;;;;;;;;;;;;3.14;100.00;102035.63;5018678;28;20018;-85
2021/03/17 07:38:30;;;;;;;;;;;;;;;3.13;100.00;102044.50;5017553;28;19925;-83
2021/03/17 07:40:55;;;;;;;;;;;;;;;3.11;100.00;102046.41;5023219;28;19929;-83
2021/03/17 07:43:21;;;;;;;;;;;;;;;3.11;100.00;102049.06;5025473;28;19925;-81
2021/03/17 07:45:47;;;;;;;;;;;;;;;3.15;100.00;102045.28;5033384;28;20016;-84
2021/03/17 07:48:13;;;;;;;;;;;;;;;3.15;100.00;102042.63;5018432;28;19974;-84
2021/03/17 07:50:39;;;;;;;;;;;;;;;3.21;100.00;102044.06;5019779;28;19944;-82
2021/03/17 07:53:06;;;;;;;;;;;;;;;3.20;100.00;102043.22;5020756;28;20411;-83
2021/03/17 07:55:33;;;;;;;;;;;;;;;3.19;100.00;102044.16;5023583;28;19921;-82
2021/03/17 07:57:59;;;;;;;;;;;;;;;3.21;100.00;102047.59;5023911;28;19925;-82
2021/03/17 08:00:25;;;;;;;;;;;;;;;3.25;100.00;102038.53;5019344;28;19933;-82
2021/03/17 08:02:51;;;;;;;;;;;;;;;3.25;100.00;102042.94;5019652;28;19922;-85
2021/03/17 08:05:16;;;;;;;;;;;;;;;3.24;100.00;102052.72;5023213;28;19947;-85
2021/03/17 08:07:42;;;;;;;;;;;;;;;3.23;100.00;102044.84;5020056;28;20379;-85
2021/03/17 08:10:08;;;;;;;;;;;;;;;3.22;100.00;102054.59;5024772;28;20454;-82
2021/03/17 08:12:34;;;;;;;;;;;;;;;3.25;100.00;102062.41;5024068;28;19929;-84
2021/03/17 08:15:00;;;;;;;;;;;;;;;3.26;100.00;102063.25;5022031;28;19917;-84
2021/03/17 08:17:33;;;;;;;;;;;;;;;3.24;100.00;102067.78;5008705;28;19918;-84
2021/03/17 08:20:13;;;;;;;;;;;;;;;3.12;100.00;102072.81;5017843;28;19922;-84
2021/03/17 08:22:38;;;;;;;;;;;;;;;2.89;100.00;102076.72;5019703;28;19921;-82
2021/03/17 08:25:04;;;;;;;;;;;;;;;2.84;100.00;102070.81;5020122;28;20401;-85
2021/03/17 08:27:29;;;;;;;;;;;;;;;2.88;100.00;102072.38;5016266;28;20396;-85
2021/03/17 08:30:04;;;;;;;;;;;;;;;3.00;100.00;102077.97;5001915;28;20348;-81
2021/03/17 08:32:48;;;;;;;;;;;;;;;3.03;100.00;102077.78;5016256;28;19979;-81
2021/03/17 08:35:13;;;;;;;;;;;;;;;3.13;100.00;102069.22;5006437;28;19926;-84
2021/03/17 08:37:48;;;;;;;;;;;;;;;3.30;100.00;102067.44;5013800;28;19983;-84
2021/03/17 08:40:28;;;;;;;;;;;;;;;3.41;100.00;102070.34;5030307;28;19925;-84
2021/03/17 08:42:57;;;;;;;;;;;;;;;3.53;100.00;102080.25;5016143;28;20310;-84
2021/03/17 08:45:23;;;;;;;;;;;;;;;3.59;100.00;102079.03;5024476;28;19928;-84
2021/03/17 08:47:49;;;;;;;;;;;;;;;3.63;100.00;102069.97;5023291;28;19929;-84
2021/03/17 08:50:14;;;;;;;;;;;;;;;3.63;100.00;102093.88;5022494;28;19936;-82
2021/03/17 08:52:43;;;;;;;;;;;;;;;3.69;100.00;102079.41;5023301;28;19921;-81
2021/03/17 08:55:19;;;;;;;;;;;;;;;3.72;100.00;102087.19;5020235;28;20119;-82
2021/03/17 08:58:04;;;;;;;;;;;;;;;3.76;100.00;102081.59;5020665;28;19926;-83
2021/03/17 09:00:49;;;;;;;;;;;;;;;3.83;100.00;102088.28;5021026;28;19928;-83
2021/03/17 09:03:33;;;;;;;;;;;;;;;3.89;100.00;102080.91;5024091;28;19960;-81
2021/03/17 09:06:18;;;;;;;;;;;;;;;3.96;100.00;102087.53;5040969;28;19972;-84
2021/03/17 09:08:49;;;;;;;;;;;;;;;3.96;98.79;102082.22;5018509;28;19921;-84
2021/03/17 09:11:29;;;;;;;;;;;;;;;4.02;99.11;102076.56;5024881;28;19929;-85
2021/03/17 09:13:56;;;;;;;;;;;;;;;4.11;99.31;102085.78;5021262;28;19925;-83
2021/03/17 09:16:21;;;;;;;;;;;;;;;4.13;98.34;102087.41;5005950;28;19921;-84
2021/03/17 09:19:16;;;;;;;;;;;;;;;4.09;97.20;102088.53;5036994;28;20621;-84
2021/03/17 09:21:45;;;;;;;;;;;;;;;4.04;96.94;102083.50;5007723;28;19971;-83
2021/03/17 09:24:30;;;;;;;;;;;;;;;3.98;95.94;102096.28;5026945;28;20203;-83
2021/03/17 09:27:05;;;;;;;;;;;;;;;3.90;97.99;102091.41;5027512;28;20413;-84
2021/03/17 09:29:31;;;;;;;;;;;;;;;3.77;97.92;102088.63;5025085;28;19975;-83
2021/03/17 09:31:56;;;;;;;;;;;;;;;3.84;100.00;102087.31;5026220;28;19933;-81
2021/03/17 09:34:29;;;;;;;;;;;;;;;3.75;100.00;102092.31;5010876;28;19922;-83
2021/03/17 09:37:10;;;;;;;;;;;;;;;3.72;100.00;102109.28;5031416;28;19925;-82
2021/03/17 09:39:39;;;;;;;;;;;;;;;3.42;100.00;102089.75;5030012;28;19921;-83
2021/03/17 09:42:05;;;;;;;;;;;;;;;3.31;100.00;102090.34;5021405;28;19963;-83
2021/03/17 09:44:30;;;;;;;;;;;;;;;3.27;100.00;102078.22;5014363;28;20368;-85
2021/03/17 09:46:56;;;;;;;;;;;;;;;3.21;100.00;102081.22;5021722;28;19921;-84
2021/03/17 09:49:25;;;;;;;;;;;;;;;3.34;100.00;102080.44;5031224;28;19959;-85
2021/03/17 09:51:52;;;;;;;;;;;;;;;3.53;100.00;102079.41;5029756;28;19949;-81
2021/03/17 09:54:19;;;;;;;;;;;;;;;3.65;100.00;102081.34;5027337;28;19944;-83
2021/03/17 09:56:47;;;;;;;;;;;;;;;3.80;100.00;102077.81;5022994;28;19921;-85
2021/03/17 09:59:26;;;;;;;;;;;;;;;3.93;100.00;102077.09;5020326;28;19929;-85
2021/03/17 10:01:56;;;;;;;;;;;;;;;4.06;100.00;102076.28;5011255;28;20033;-82
2021/03/17 10:04:44;;;;;;;;;;;;;;;4.11;100.00;102080.47;5015054;28;20392;-83
2021/03/17 10:07:11;;;;;;;;;;;;;;;4.25;100.00;102075.19;5026745;28;19960;-82
2021/03/17 10:09:36;;;;;;;;;;;;;;;4.26;98.28;102072.44;5021573;28;20371;-84
2021/03/17 10:12:12;;;;;;;;;;;;;;;4.31;98.65;102077.47;5014181;28;19972;-81
2021/03/17 10:14:52;;;;;;;;;;;;;;;4.33;95.86;102077.41;5019594;28;19927;-83
2021/03/17 10:17:18;;;;;;;;;;;;;;;4.35;94.99;102079.03;5019241;28;19925;-83
2021/03/17 10:19:47;;;;;;;;;;;;;;;4.30;94.50;102076.63;5022973;28;19944;-83
2021/03/17 10:22:14;;;;;;;;;;;;;;;4.22;93.67;102070.91;5024052;28;19952;-84
2021/03/17 10:24:45;;;;;;;;;;;;;;;4.27;95.10;102071.50;5024926;28;19947;-83
2021/03/17 10:27:16;;;;;;;;;;;;;;;4.47;95.69;102061.47;5035455;28;19926;-83
2021/03/17 10:29:42;;;;;;;;;;;;;;;4.49;92.23;102065.75;5013039;28;19944;-82
2021/03/17 10:32:09;;;;;;;;;;;;;;;4.53;90.51;102066.41;5023989;28;19929;-84
2021/03/17 10:34:35;;;;;;;;;;;;;;;4.59;89.04;102063.38;5007527;28;20333;-84
2021/03/17 10:37:01;;;;;;;;;;;;;;;4.75;88.40;102061.47;5022808;28;19921;-82
2021/03/17 10:39:28;;;;;;;;;;;;;;;4.90;85.13;102064.13;5025354;28;20397;-84
2021/03/17 10:41:55;;;;;;;;;;;;;;;5.06;81.69;102059.53;5020548;28;19928;-81
2021/03/17 10:44:21;;;;;;;;;;;;;;;5.11;82.19;102070.75;5023203;28;20283;-83
2021/03/17 10:46:59;;;;;;;;;;;;;;;5.12;82.37;102072.47;5004259;28;19980;-83
2021/03/17 10:49:27;;;;;;;;;;;;;;;5.06;81.43;102074.63;5019624;28;19983;-85
2021/03/17 10:51:56;;;;;;;;;;;;;;;5.01;82.30;102074.94;5014871;28;19932;-84
2021/03/17 10:54:32;;;;;;;;;;;;;;;5.01;83.01;102079.44;5020302;28;19920;-82
2021/03/17 10:56:58;;;;;;;;;;;;;;;4.98;82.91;102075.16;5021821;28;19921;-82
2021/03/17 10:59:33;;;;;;;;;;;;;;;4.97;81.92;102086.72;5025346;28;19921;-85
2021/03/17 11:02:17;;;;;;;;;;;;;;;4.95;83.37;102081.50;5021399;28;20140;-81
2021/03/17 11:05:01;;;;;;;;;;;;;;;4.98;83.58;102076.00;5017878;28;19928;-85
2021/03/17 11:07:26;;;;;;;;;;;;;;;4.95;81.36;102080.66;5018688;28;19922;-85
2021/03/17 11:09:52;;;;;;;;;;;;;;;5.03;82.97;102065.03;5018281;28;20089;-83
2021/03/17 11:12:17;;;;;;;;;;;;;;;5.12;81.51;102053.84;5003521;28;20280;-86
2021/03/17 11:14:42;;;;;;;;;;;;;;;5.24;81.17;102054.00;5010691;28;19964;-84
2021/03/17 11:17:08;;;;;;;;;;;;;;;5.31;81.03;102061.47;5033949;28;19926;-83
2021/03/17 11:19:34;;;;;;;;;;;;;;;5.34;81.22;102057.78;5003275;28;19921;-84
2021/03/17 11:21:59;;;;;;;;;;;;;;;5.39;80.97;102064.50;5003825;28;19925;-83
2021/03/17 11:24:24;;;;;;;;;;;;;;;5.49;80.88;102061.22;4990512;28;19925;-84
2021/03/17 11:26:49;;;;;;;;;;;;;;;5.60;80.03;102058.72;5006198;28;19973;-83
2021/03/17 11:29:23;;;;;;;;;;;;;;;5.79;77.87;102058.38;5009736;28;19921;-84
2021/03/17 11:31:50;;;;;;;;;;;;;;;5.98;79.24;102055.34;5007311;28;19968;-81
2021/03/17 11:34:16;;;;;;;;;;;;;;;5.98;76.37;102063.34;5008332;28;20276;-85
2021/03/17 11:36:42;;;;;;;;;;;;;;;6.04;76.87;102063.78;5006921;28;20346;-83
2021/03/17 11:39:09;;;;;;;;;;;;;;;5.98;76.67;102066.84;5023866;28;20012;-83
2021/03/17 11:41:34;;;;;;;;;;;;;;;5.93;76.36;102055.66;5005069;28;20012;-83
2021/03/17 11:44:00;;;;;;;;;;;;;;;5.93;77.45;102065.41;5000350;28;20060;-85
2021/03/17 11:46:25;;;;;;;;;;;;;;;6.03;76.82;102059.41;5009907;28;20591;-82
2021/03/17 11:48:51;;;;;;;;;;;;;;;6.14;77.42;102058.69;5022809;28;20382;-83
2021/03/17 11:51:16;;;;;;;;;;;;;;;6.16;76.26;102055.91;5029007;28;19925;-85
2021/03/17 11:53:43;;;;;;;;;;;;;;;6.17;77.12;102054.97;5025659;28;20016;-85
2021/03/17 11:56:08;;;;;;;;;;;;;;;6.08;74.13;102051.97;5002198;28;19922;-84
2021/03/17 11:58:34;;;;;;;;;;;;;;;6.03;74.27;102056.75;5006297;28;20361;-84
2021/03/17 12:01:02;;;;;;;;;;;;;;;6.05;74.12;102053.97;5003122;28;19980;-85
2021/03/17 12:03:27;;;;;;;;;;;;;;;6.05;76.15;102060.16;5024198;28;20020;-83
2021/03/17 12:05:52;;;;;;;;;;;;;;;5.99;74.04;102065.06;5037902;28;20012;-84
2021/03/17 12:08:18;;;;;;;;;;;;;;;6.01;75.72;102065.78;5025013;28;19917;-83
2021/03/17 12:10:44;;;;;;;;;;;;;;;5.95;73.30;102066.22;5024892;28;20441;-82
2021/03/17 12:13:09;;;;;;;;;;;;;;;5.96;75.60;102059.94;5008359;28;20052;-82
2021/03/17 12:15:35;;;;;;;;;;;;;;;5.96;75.28;102060.78;5010102;28;20012;-85
2021/03/17 12:18:00;;;;;;;;;;;;;;;6.01;76.19;102058.69;5014004;28;19922;-86
2021/03/17 12:20:26;;;;;;;;;;;;;;;6.07;76.64;102058.25;5026290;28;19921;-85
2021/03/17 12:22:52;;;;;;;;;;;;;;;6.13;74.97;102056.97;5022404;28;19928;-84
2021/03/17 12:25:18;;;;;;;;;;;;;;;6.23;73.98;102057.19;5026650;28;19917;-83
2021/03/17 12:27:43;;;;;;;;;;;;;;;6.55;74.93;102058.47;5018269;28;19974;-83
2021/03/17 12:30:10;;;;;;;;;;;;;;;6.76;75.01;102042.81;5021753;28;19921;-84
2021/03/17 12:32:35;;;;;;;;;;;;;;;6.74;74.31;102050.03;5029020;28;19979;-83
2021/03/17 12:35:00;;;;;;;;;;;;;;;6.85;74.12;102057.28;5025208;28;20030;-85
2021/03/17 12:37:26;;;;;;;;;;;;;;;6.98;72.80;102041.25;5026895;28;19979;-84
2021/03/17 12:39:51;;;;;;;;;;;;;;;7.06;69.82;102046.03;5019827;28;19928;-83
2021/03/17 12:42:16;;;;;;;;;;;;;;;7.12;72.67;102040.25;5026954;28;19931;-86
2021/03/17 12:44:45;;;;;;;;;;;;;;;7.49;71.18;102027.72;5019888;28;20474;-82
2021/03/17 12:47:11;;;;;;;;;;;;;;;7.44;68.92;102020.03;5015113;28;20356;-84